KGJT/GJT METAR and TAF weather

Enter ICAO airport designator
Station Type Date Time Source
KGJT METAR 2020/11/27 02:53 UTC NOAA

KGJT 270253Z 02008KT 10SM BKN100 01/M08 A3017 RMK AO2 SLP228 T00111078 51018


Station Type Date Time Source
KGJT Decoded METAR 2020/11/27 02:53 UTC NOAA

GRAND JUNCTION WALKER FIELD, CO, United States (KGJT) 39-08N 108-32W 1452M
Nov 26, 2020 - 09:53 PM EST / 2020.11.27 0253 UTC
Wind: from the NNE (020 degrees) at 9 MPH (8 KT):0
Visibility: 10 mile(s):0
Sky conditions: mostly cloudy
Temperature: 34.0 F (1.1 C)
Windchill: 26 F (-3 C):1
Dew Point: 18.0 F (-7.8 C)
Relative Humidity: 51%
Pressure (altimeter): 30.17 in. Hg (1021 hPa)
Pressure tendency: 0.05 inches (1.8 hPa) higher than three hours ago
ob: KGJT 270253Z 02008KT 10SM BKN100 01/M08 A3017 RMK AO2 SLP228 T00111078 51018
cycle: 3

Station Type Date Time Source
KGJT TAF 2020/11/26 18:40 UTC NOAA

TAF KGJT 261738Z 2618/2718 33007KT P6SM BKN060 OVC080
FM270200 05005KT P6SM FEW060 SCT080
FM271200 11005KT P6SM FEW100 FEW150

Example: see airport list